Aviation Digital Data Service (ADDS)

Output produced by METARs form (1146 UTC 23 June 2021)
found at http://www.aviationweather.gov/metar/data/
 
METAR text: KFAT 231053Z 30009KT 10SM CLR 20/11 A2983 RMK AO2 SLP098 T02000111 /
Conditions at: KFAT (FRESNO , CA, US) observed 1053 UTC 23 June 2021
Temperature: 20.0°C (68°F)
Dewpoint: 11.1°C (52°F) [RH = 57%]
Pressure (altimeter): 29.83 inches Hg (1010.2 mb)
[Sea-level pressure: 1009.8 mb]
Winds: from the WNW (300 degrees) at 10 MPH (9 knots; 4.6 m/s)
Visibility: 10 or more miles (16+ km)
Ceiling: at least 12,000 feet AGL
Clouds: sky clear below 12,000 feet AGL
Weather: no significant weather observed at this time

Forecast for: KFAT (FRESNO , CA, US)
Text: KFAT 231120Z 2312/2412 30009KT P6SM SKC
Forecast period: 1200 UTC 23 June 2021 to 1200 UTC 24 June 2021
Forecast type: FROM: standard forecast or significant change
Winds: from the WNW (300 degrees) at 10 MPH (9 knots; 4.6 m/s)
Visibility: 6 or more miles (10+ km)
Clouds: clear skies
Weather: no significant weather forecast for this period